Time;durP1;ratioP1;P1;durP2;ratioP2;P2;SDS_P1;SDS_P2;PMS_P1;PMS_P2;Temp;Humidity;BMP_temperature;BMP_pressure;BME280_temperature;BME280_humidity;BME280_pressure;Samples;Min_cycle;Max_cycle;Signal;HPM_P1;HPM_P2
2022/09/13 00:00:31;;;;;;;11.38;8.27;;;;;;;;;;4773285;30;20163;-75
2022/09/13 00:02:57;;;;;;;8.55;7.85;;;;;;;;;;4772870;30;20177;-76
2022/09/13 00:05:23;;;;;;;13.15;7.97;;;;;;;;;;4772901;30;20052;-76
2022/09/13 00:07:49;;;;;;;9.88;8.00;;;;;;;;;;4772987;30;20052;-76
2022/09/13 00:10:15;;;;;;;14.90;8.10;;;;;;;;;;4773256;30;20047;-76
2022/09/13 00:12:42;;;;;;;9.68;7.80;;;;;;;;;;4773344;30;20056;-76
2022/09/13 00:15:08;;;;;;;10.68;8.32;;;;;;;;;;4772863;30;20051;-76
2022/09/13 00:17:34;;;;;;;11.02;8.07;;;;;;;;;;4772702;30;20055;-76
2022/09/13 00:20:00;;;;;;;9.10;7.45;;;;;;;;;;4772633;30;20446;-76
2022/09/13 00:22:27;;;;;;;10.85;8.77;;;;;;;;;;4772961;30;20048;-76
2022/09/13 00:24:53;;;;;;;9.65;7.90;;;;;;;;;;4772558;30;20052;-76
2022/09/13 00:27:19;;;;;;;10.63;8.60;;;;;;;;;;4772805;30;20143;-76
2022/09/13 00:29:45;;;;;;;10.75;8.40;;;;;;;;;;4772489;30;20043;-76
2022/09/13 00:32:12;;;;;;;9.88;8.98;;;;;;;;;;4773287;30;20056;-76
2022/09/13 00:34:38;;;;;;;9.95;8.73;;;;;;;;;;4772592;30;20362;-76
2022/09/13 00:37:04;;;;;;;9.80;8.85;;;;;;;;;;4772486;30;20512;-76
2022/09/13 00:39:32;;;;;;;10.13;9.20;;;;;;;;;;4772563;30;20049;-76
2022/09/13 00:41:58;;;;;;;9.93;8.93;;;;;;;;;;4773140;30;20520;-76
2022/09/13 00:44:43;;;;;;;9.63;8.65;;;;;;;;;;4772403;30;20062;-76
2022/09/13 00:47:10;;;;;;;10.18;8.20;;;;;;;;;;4772482;30;20139;-76
2022/09/13 00:49:37;;;;;;;13.45;9.23;;;;;;;;;;4772766;30;20047;-76
2022/09/13 00:52:06;;;;;;;12.65;9.15;;;;;;;;;;4772108;30;20503;-76
2022/09/13 00:54:40;;;;;;;11.25;8.88;;;;;;;;;;4772283;30;20100;-76
2022/09/13 00:57:07;;;;;;;13.95;9.10;;;;;;;;;;4772860;30;20128;-76
2022/09/13 00:59:46;;;;;;;11.90;9.18;;;;;;;;;;4772259;30;20115;-76
2022/09/13 01:02:13;;;;;;;12.73;8.80;;;;;;;;;;4772267;30;20047;-78
2022/09/13 01:04:39;;;;;;;9.82;8.60;;;;;;;;;;4771368;30;20039;-77
2022/09/13 01:07:10;;;;;;;9.93;8.93;;;;;;;;;;4769845;30;20036;-77
2022/09/13 01:09:36;;;;;;;;;;;;;;;;;;4771733;30;20070;-79
2022/09/13 01:12:26;;;;;;;13.32;9.15;;;;;;;;;;4771599;30;19920;-77
2022/09/13 01:14:52;;;;;;;9.73;8.80;;;;;;;;;;4771246;30;20070;-78
2022/09/13 01:17:18;;;;;;;10.13;9.05;;;;;;;;;;4772507;30;20036;-75
2022/09/13 01:19:45;;;;;;;10.13;8.77;;;;;;;;;;4772265;30;20047;-73
2022/09/13 01:22:31;;;;;;;13.40;9.77;;;;;;;;;;4772161;30;20082;-75
2022/09/13 01:25:00;;;;;;;12.85;9.70;;;;;;;;;;4770671;30;20126;-75
2022/09/13 01:27:32;;;;;;;13.98;12.07;;;;;;;;;;4772092;30;20035;-74
2022/09/13 01:30:04;;;;;;;11.20;8.57;;;;;;;;;;4772356;30;20084;-74
2022/09/13 01:32:34;;;;;;;10.30;8.95;;;;;;;;;;4772343;30;20052;-74
2022/09/13 01:35:22;;;;;;;9.18;8.38;;;;;;;;;;4771598;30;20052;-75
2022/09/13 01:38:18;;;;;;;9.80;8.05;;;;;;;;;;4771915;30;20048;-75
2022/09/13 01:40:44;;;;;;;12.70;7.90;;;;;;;;;;4769768;30;20127;-75
2022/09/13 01:43:16;;;;;;;11.65;7.55;;;;;;;;;;4771850;30;20512;-74
2022/09/13 01:45:42;;;;;;;9.40;7.57;;;;;;;;;;4771141;30;20467;-74
2022/09/13 01:48:11;;;;;;;11.80;8.43;;;;;;;;;;4771271;30;20050;-74
2022/09/13 01:50:49;;;;;;;9.57;7.90;;;;;;;;;;4771598;30;20097;-75
2022/09/13 01:53:25;;;;;;;9.05;7.93;;;;;;;;;;4771399;30;20530;-75
2022/09/13 01:55:57;;;;;;;10.32;8.20;;;;;;;;;;4771509;30;20071;-75
2022/09/13 01:58:29;;;;;;;8.82;7.93;;;;;;;;;;4771756;30;20467;-75
2022/09/13 02:01:03;;;;;;;9.60;8.27;;;;;;;;;;4771450;30;20204;-75
2022/09/13 02:03:39;;;;;;;10.95;8.13;;;;;;;;;;4771394;30;20060;-74
2022/09/13 02:06:09;;;;;;;9.50;8.55;;;;;;;;;;4771152;30;20093;-74
2022/09/13 02:08:37;;;;;;;11.88;8.35;;;;;;;;;;4771180;30;20048;-74
2022/09/13 02:11:09;;;;;;;11.43;7.85;;;;;;;;;;4771088;30;20044;-74
2022/09/13 02:13:37;;;;;;;10.80;9.07;;;;;;;;;;4771271;30;20058;-75
2022/09/13 02:16:12;;;;;;;11.32;8.55;;;;;;;;;;4771034;30;20090;-75
2022/09/13 02:18:40;;;;;;;9.68;7.90;;;;;;;;;;4771750;30;20075;-75
2022/09/13 02:21:15;;;;;;;9.10;8.15;;;;;;;;;;4774593;30;20047;-75
2022/09/13 02:23:44;;;;;;;15.02;8.05;;;;;;;;;;4775106;30;20079;-75
2022/09/13 02:26:12;;;;;;;9.00;8.20;;;;;;;;;;4774826;30;20059;-75
2022/09/13 02:28:41;;;;;;;11.50;8.00;;;;;;;;;;4774814;30;20132;-74
2022/09/13 02:31:08;;;;;;;9.48;7.95;;;;;;;;;;4774453;30;20035;-74
2022/09/13 02:33:39;;;;;;;10.00;7.90;;;;;;;;;;4774570;30;20056;-74
2022/09/13 02:36:07;;;;;;;12.77;7.57;;;;;;;;;;4774231;30;20075;-75
2022/09/13 02:38:44;;;;;;;11.40;7.88;;;;;;;;;;4774574;30;20096;-75
2022/09/13 02:41:26;;;;;;;9.85;8.15;;;;;;;;;;4774854;30;20054;-75
2022/09/13 02:43:55;;;;;;;12.55;8.50;;;;;;;;;;4774581;30;20419;-75
2022/09/13 02:46:21;;;;;;;13.57;9.75;;;;;;;;;;4774173;30;20539;-75
2022/09/13 02:48:47;;;;;;;12.98;10.07;;;;;;;;;;4774443;30;20047;-75
2022/09/13 02:51:19;;;;;;;11.00;9.85;;;;;;;;;;4774161;30;20130;-75
2022/09/13 02:53:59;;;;;;;10.02;8.98;;;;;;;;;;4774282;30;20059;-74
2022/09/13 02:56:32;;;;;;;12.43;8.93;;;;;;;;;;4774427;30;20122;-74
2022/09/13 02:59:01;;;;;;;14.88;9.90;;;;;;;;;;4773914;30;20177;-75
2022/09/13 03:01:27;;;;;;;13.98;8.73;;;;;;;;;;4774308;30;20132;-75
2022/09/13 03:03:53;;;;;;;16.83;9.73;;;;;;;;;;4773966;30;20412;-75
2022/09/13 03:06:27;;;;;;;15.57;9.85;;;;;;;;;;4774016;30;20144;-75
2022/09/13 03:08:56;;;;;;;14.90;9.38;;;;;;;;;;4774109;30;20048;-75
2022/09/13 03:11:24;;;;;;;10.85;8.57;;;;;;;;;;4774137;30;20055;-75
2022/09/13 03:14:00;;;;;;;14.35;9.82;;;;;;;;;;4773755;30;20189;-75
2022/09/13 03:16:44;;;;;;;17.38;9.98;;;;;;;;;;4773757;30;20058;-74
2022/09/13 03:19:29;;;;;;;13.07;9.48;;;;;;;;;;4773669;30;20044;-74
2022/09/13 03:21:58;;;;;;;12.52;9.90;;;;;;;;;;4773516;30;20050;-75
2022/09/13 03:24:28;;;;;;;10.27;9.13;;;;;;;;;;4773697;30;20527;-75
2022/09/13 03:27:23;;;;;;;11.85;9.35;;;;;;;;;;4773784;30;20048;-75
2022/09/13 03:29:55;;;;;;;15.48;8.73;;;;;;;;;;4771360;30;20059;-75
2022/09/13 03:32:32;;;;;;;12.40;8.30;;;;;;;;;;4773989;30;20043;-75
2022/09/13 03:35:17;;;;;;;9.43;8.20;;;;;;;;;;4773663;30;20078;-75
2022/09/13 03:37:55;;;;;;;9.55;8.23;;;;;;;;;;4773208;30;20051;-75
2022/09/13 03:40:41;;;;;;;9.95;8.43;;;;;;;;;;4773441;30;20596;-75
2022/09/13 03:43:12;;;;;;;8.43;7.00;;;;;;;;;;4773215;30;20048;-76
2022/09/13 03:45:40;;;;;;;11.13;7.78;;;;;;;;;;4773930;30;20082;-75
2022/09/13 03:48:07;;;;;;;11.77;7.57;;;;;;;;;;4773522;30;20043;-74
2022/09/13 03:50:34;;;;;;;10.43;7.18;;;;;;;;;;4773500;30;20075;-81
2022/09/13 03:53:03;;;;;;;10.82;9.70;;;;;;;;;;4772997;30;20051;-82
2022/09/13 03:55:31;;;;;;;10.98;6.60;;;;;;;;;;4773648;30;20083;-81
2022/09/13 03:57:57;;;;;;;8.90;6.47;;;;;;;;;;4773030;30;20620;-79
2022/09/13 04:00:23;;;;;;;12.27;7.10;;;;;;;;;;4772888;30;20051;-80
2022/09/13 04:02:49;;;;;;;9.13;6.50;;;;;;;;;;4772277;30;20040;-80
2022/09/13 04:05:16;;;;;;;12.05;7.03;;;;;;;;;;4772771;30;20078;-79
2022/09/13 04:07:42;;;;;;;6.70;6.13;;;;;;;;;;4772251;30;20144;-78
2022/09/13 04:10:09;;;;;;;9.25;5.72;;;;;;;;;;4773083;30;20128;-79
2022/09/13 04:12:35;;;;;;;9.18;6.05;;;;;;;;;;4772967;30;20401;-79
2022/09/13 04:15:01;;;;;;;8.85;6.05;;;;;;;;;;4772924;30;20063;-79
2022/09/13 04:17:28;;;;;;;13.32;6.50;;;;;;;;;;4773246;30;20078;-83
2022/09/13 04:19:54;;;;;;;7.10;5.65;;;;;;;;;;4773207;30;20052;-88
2022/09/13 04:22:20;;;;;;;10.90;6.25;;;;;;;;;;4771766;30;20472;-87
2022/09/13 04:24:47;;;;;;;11.38;5.60;;;;;;;;;;4772640;30;20040;-88
2022/09/13 04:27:13;;;;;;;12.15;6.65;;;;;;;;;;4772991;30;20052;-84
2022/09/13 04:29:39;;;;;;;10.35;5.78;;;;;;;;;;4771881;30;20043;-83
2022/09/13 04:32:05;;;;;;;8.13;5.78;;;;;;;;;;4772712;30;20636;-86
2022/09/13 04:34:31;;;;;;;9.65;5.60;;;;;;;;;;4772584;30;20055;-82
2022/09/13 04:36:57;;;;;;;10.57;5.15;;;;;;;;;;4772708;30;20569;-76
2022/09/13 04:39:42;;;;;;;7.72;5.70;;;;;;;;;;4772862;30;20036;-76
2022/09/13 04:42:18;;;;;;;8.63;5.15;;;;;;;;;;4770884;30;20046;-75
2022/09/13 04:44:44;;;;;;;7.68;5.75;;;;;;;;;;4771112;30;20134;-76
2022/09/13 04:47:10;;;;;;;7.25;5.90;;;;;;;;;;4772471;30;20052;-76
2022/09/13 04:49:37;;;;;;;6.63;5.10;;;;;;;;;;4771725;30;20058;-74
2022/09/13 04:52:03;;;;;;;8.40;5.60;;;;;;;;;;4771347;30;20047;-75
2022/09/13 04:54:30;;;;;;;13.70;5.35;;;;;;;;;;4771879;30;20054;-76
2022/09/13 04:56:56;;;;;;;5.88;4.57;;;;;;;;;;4772657;30;20048;-76
2022/09/13 04:59:22;;;;;;;6.30;4.38;;;;;;;;;;4772212;30;20565;-74
2022/09/13 05:01:48;;;;;;;6.97;4.65;;;;;;;;;;4772206;30;20051;-76
2022/09/13 05:04:14;;;;;;;8.00;4.70;;;;;;;;;;4771944;30;20055;-76
2022/09/13 05:06:40;;;;;;;5.95;4.40;;;;;;;;;;4771970;30;20048;-76
2022/09/13 05:09:07;;;;;;;8.50;4.47;;;;;;;;;;4771827;30;20504;-76
2022/09/13 05:11:33;;;;;;;7.90;4.70;;;;;;;;;;4772279;30;20100;-76
2022/09/13 05:14:00;;;;;;;9.30;4.75;;;;;;;;;;4771955;30;20047;-76
2022/09/13 05:16:28;;;;;;;8.57;4.60;;;;;;;;;;4771753;30;20504;-76
2022/09/13 05:18:54;;;;;;;5.28;4.20;;;;;;;;;;4771932;30;20131;-76
2022/09/13 05:21:21;;;;;;;6.53;4.40;;;;;;;;;;4771883;30;20059;-76
2022/09/13 05:23:52;;;;;;;9.73;4.55;;;;;;;;;;4771966;30;20049;-75
2022/09/13 05:26:19;;;;;;;6.88;4.30;;;;;;;;;;4771759;30;20040;-75
2022/09/13 05:28:45;;;;;;;10.77;4.45;;;;;;;;;;4771565;30;20044;-75
2022/09/13 05:31:19;;;;;;;8.63;4.90;;;;;;;;;;4771534;30;20083;-76
2022/09/13 05:33:46;;;;;;;7.40;4.43;;;;;;;;;;4771350;30;20073;-76
2022/09/13 05:36:12;;;;;;;8.95;4.60;;;;;;;;;;4771987;30;20068;-76
2022/09/13 05:38:38;;;;;;;5.80;4.70;;;;;;;;;;4771544;30;20054;-76
2022/09/13 05:41:05;;;;;;;7.65;4.57;;;;;;;;;;4771380;30;20064;-76
2022/09/13 05:43:34;;;;;;;10.43;4.78;;;;;;;;;;4770117;30;20047;-76
2022/09/13 05:46:01;;;;;;;5.03;4.05;;;;;;;;;;4771329;30;20068;-76
2022/09/13 05:48:28;;;;;;;7.38;4.70;;;;;;;;;;4771556;30;20055;-76
2022/09/13 05:50:54;;;;;;;5.75;4.47;;;;;;;;;;4771272;30;20115;-76
2022/09/13 05:53:20;;;;;;;11.65;4.72;;;;;;;;;;4770740;30;20047;-76
2022/09/13 05:55:47;;;;;;;6.68;4.63;;;;;;;;;;4771418;30;20557;-76
2022/09/13 05:58:13;;;;;;;13.18;4.70;;;;;;;;;;4771216;30;20048;-76
2022/09/13 06:00:39;;;;;;;8.13;4.60;;;;;;;;;;4771498;30;20504;-76
2022/09/13 06:03:05;;;;;;;7.38;4.30;;;;;;;;;;4771944;30;20051;-76
2022/09/13 06:05:31;;;;;;;8.65;4.78;;;;;;;;;;4771408;30;20054;-76
2022/09/13 06:07:57;;;;;;;7.50;4.10;;;;;;;;;;4771392;30;20130;-76
2022/09/13 06:10:24;;;;;;;8.98;4.32;;;;;;;;;;4771389;30;20074;-75
2022/09/13 06:12:50;;;;;;;8.75;4.75;;;;;;;;;;4771904;30;20051;-76
2022/09/13 06:15:16;;;;;;;7.40;4.75;;;;;;;;;;4770976;30;20067;-74
2022/09/13 06:17:42;;;;;;;7.25;4.45;;;;;;;;;;4771543;30;20055;-76
2022/09/13 06:20:09;;;;;;;10.88;4.43;;;;;;;;;;4769880;30;20079;-75
2022/09/13 06:22:35;;;;;;;7.30;4.00;;;;;;;;;;4770179;30;20056;-75
2022/09/13 06:25:01;;;;;;;9.52;4.38;;;;;;;;;;4770666;30;20051;-75
2022/09/13 06:27:31;;;;;;;8.40;4.25;;;;;;;;;;4770411;30;20058;-76
2022/09/13 06:29:57;;;;;;;10.18;4.43;;;;;;;;;;4771275;30;20132;-76
2022/09/13 06:32:23;;;;;;;7.45;4.07;;;;;;;;;;4770515;30;20058;-76
2022/09/13 06:34:49;;;;;;;9.77;4.22;;;;;;;;;;4771238;30;20047;-76
2022/09/13 06:37:15;;;;;;;8.30;4.60;;;;;;;;;;4770587;30;20051;-76
2022/09/13 06:39:42;;;;;;;9.07;4.20;;;;;;;;;;4771128;30;20047;-76
2022/09/13 06:42:08;;;;;;;12.68;4.28;;;;;;;;;;4771290;30;20051;-75
2022/09/13 06:44:34;;;;;;;6.97;4.00;;;;;;;;;;4771043;30;20063;-76
2022/09/13 06:47:00;;;;;;;5.80;3.92;;;;;;;;;;4771364;30;20104;-76
2022/09/13 06:49:28;;;;;;;11.02;3.65;;;;;;;;;;4771378;30;20504;-76
2022/09/13 06:51:54;;;;;;;8.70;3.58;;;;;;;;;;4771755;30;20485;-76
2022/09/13 06:54:20;;;;;;;6.70;3.97;;;;;;;;;;4770973;30;20062;-76
2022/09/13 06:56:46;;;;;;;7.47;4.00;;;;;;;;;;4770769;30;20205;-76
2022/09/13 06:59:12;;;;;;;5.95;3.45;;;;;;;;;;4770673;30;20103;-75
2022/09/13 07:01:39;;;;;;;7.88;4.15;;;;;;;;;;4770679;30;20100;-75
2022/09/13 07:04:07;;;;;;;8.02;3.97;;;;;;;;;;4770587;30;20051;-75
2022/09/13 07:06:37;;;;;;;5.53;3.30;;;;;;;;;;4771664;30;20055;-74
2022/09/13 07:09:04;;;;;;;7.68;3.90;;;;;;;;;;4773599;30;20056;-75
2022/09/13 07:11:35;;;;;;;8.68;3.97;;;;;;;;;;4773311;30;20047;-74
2022/09/13 07:14:01;;;;;;;6.18;3.65;;;;;;;;;;4774438;30;20060;-74
2022/09/13 07:16:29;;;;;;;5.38;3.50;;;;;;;;;;4774069;30;20150;-75
2022/09/13 07:18:56;;;;;;;9.25;3.75;;;;;;;;;;4774268;30;20040;-75
2022/09/13 07:21:23;;;;;;;10.40;3.78;;;;;;;;;;4773887;30;20520;-75
2022/09/13 07:23:49;;;;;;;8.25;3.60;;;;;;;;;;4773906;30;20179;-75
2022/09/13 07:26:15;;;;;;;9.43;3.83;;;;;;;;;;4773889;30;20109;-75
2022/09/13 07:28:42;;;;;;;5.70;3.47;;;;;;;;;;4773838;30;20105;-75
2022/09/13 07:31:10;;;;;;;6.82;3.35;;;;;;;;;;4774420;30;20048;-75
2022/09/13 07:33:36;;;;;;;7.22;3.78;;;;;;;;;;4773937;30;20055;-75
2022/09/13 07:36:05;;;;;;;6.13;2.88;;;;;;;;;;4773975;30;20052;-75
2022/09/13 07:38:35;;;;;;;8.10;3.30;;;;;;;;;;4773800;30;20043;-75
2022/09/13 07:41:01;;;;;;;11.77;3.88;;;;;;;;;;4773911;30;20047;-75
2022/09/13 07:43:28;;;;;;;5.60;2.78;;;;;;;;;;4774419;30;20078;-75
2022/09/13 07:45:58;;;;;;;7.88;3.22;;;;;;;;;;4773444;30;20060;-75
2022/09/13 07:48:24;;;;;;;7.65;3.00;;;;;;;;;;4773518;30;20188;-75
2022/09/13 07:51:01;;;;;;;10.13;2.92;;;;;;;;;;4773234;30;20079;-80
2022/09/13 07:53:27;;;;;;;8.35;2.47;;;;;;;;;;4768568;30;20047;-82
2022/09/13 07:55:53;;;;;;;10.73;2.95;;;;;;;;;;4772792;30;20546;-82
2022/09/13 07:58:20;;;;;;;8.70;2.60;;;;;;;;;;4772062;30;20044;-79
2022/09/13 08:00:46;;;;;;;5.93;2.67;;;;;;;;;;4771876;30;20048;-74
2022/09/13 08:03:12;;;;;;;6.35;2.72;;;;;;;;;;4773249;30;20052;-76
2022/09/13 08:05:40;;;;;;;8.75;2.45;;;;;;;;;;4771794;30;20059;-76
2022/09/13 08:08:06;;;;;;;8.27;2.40;;;;;;;;;;4773015;30;20054;-77
2022/09/13 08:10:33;;;;;;;8.27;2.50;;;;;;;;;;4773121;30;20174;-77
2022/09/13 08:12:59;;;;;;;6.93;1.95;;;;;;;;;;4773144;30;20114;-77
2022/09/13 08:15:25;;;;;;;11.25;2.33;;;;;;;;;;4773078;30;20089;-77
2022/09/13 08:17:52;;;;;;;7.32;2.40;;;;;;;;;;4771491;30;20097;-77
2022/09/13 08:20:19;;;;;;;4.57;2.40;;;;;;;;;;4772722;30;20051;-77
2022/09/13 08:22:45;;;;;;;9.93;2.58;;;;;;;;;;4771816;30;20072;-77
2022/09/13 08:25:11;;;;;;;7.15;2.20;;;;;;;;;;4771329;30;20219;-79
2022/09/13 08:27:37;;;;;;;254.73;71.03;;;;;;;;;;4772875;30;20044;-72
2022/09/13 08:30:04;;;;;;;238.27;68.88;;;;;;;;;;4772415;30;20488;-80
2022/09/13 08:32:30;;;;;;;581.08;173.55;;;;;;;;;;4772600;30;20465;-73
2022/09/13 08:34:56;;;;;;;226.45;62.75;;;;;;;;;;4772627;30;20083;-72
2022/09/13 08:37:23;;;;;;;111.03;31.40;;;;;;;;;;4772516;30;20078;-73
2022/09/13 08:39:49;;;;;;;64.82;19.15;;;;;;;;;;4772640;30;20109;-73
2022/09/13 08:42:22;;;;;;;56.40;16.77;;;;;;;;;;4773081;30;20048;-73
2022/09/13 08:44:50;;;;;;;18.48;5.05;;;;;;;;;;4772954;30;20090;-71
2022/09/13 08:47:27;;;;;;;11.15;4.65;;;;;;;;;;4772775;30;20048;-71
2022/09/13 08:50:01;;;;;;;6.18;3.20;;;;;;;;;;4771895;30;20068;-72
2022/09/13 08:52:35;;;;;;;7.95;2.65;;;;;;;;;;4772865;30;20087;-70
2022/09/13 08:55:02;;;;;;;6.88;2.28;;;;;;;;;;4772246;30;20051;-70
2022/09/13 08:57:35;;;;;;;6.65;2.22;;;;;;;;;;4771116;30;20373;-70
2022/09/13 09:00:01;;;;;;;8.75;2.67;;;;;;;;;;4772087;30;20047;-70
2022/09/13 09:02:46;;;;;;;6.75;2.05;;;;;;;;;;4772609;30;20052;-70
2022/09/13 09:05:17;;;;;;;5.78;2.22;;;;;;;;;;4772224;30;20052;-70
2022/09/13 09:08:01;;;;;;;10.05;2.47;;;;;;;;;;4772026;30;20055;-70
2022/09/13 09:10:37;;;;;;;4.63;2.83;;;;;;;;;;4772009;30;20047;-70
2022/09/13 09:13:07;;;;;;;572.67;163.32;;;;;;;;;;4772318;30;20505;-74
2022/09/13 09:15:37;;;;;;;202.43;59.60;;;;;;;;;;4771855;30;20055;-71
2022/09/13 09:18:06;;;;;;;194.55;59.45;;;;;;;;;;4772008;30;20050;-76
2022/09/13 09:20:52;;;;;;;17.85;6.78;;;;;;;;;;4771920;30;20051;-71
2022/09/13 09:23:41;;;;;;;13.52;4.38;;;;;;;;;;4771498;30;20051;-71
2022/09/13 09:26:14;;;;;;;5.07;2.90;;;;;;;;;;4773283;30;20528;-72
2022/09/13 09:28:40;;;;;;;8.55;3.38;;;;;;;;;;4771128;30;20035;-71
2022/09/13 09:31:06;;;;;;;7.60;2.80;;;;;;;;;;4772328;30;20048;-73
2022/09/13 09:33:35;;;;;;;11.02;3.08;;;;;;;;;;4771694;30;20052;-72
2022/09/13 09:36:19;;;;;;;8.05;2.50;;;;;;;;;;4771213;30;20579;-72
2022/09/13 09:38:45;;;;;;;7.15;2.42;;;;;;;;;;4771987;30;20055;-72
2022/09/13 09:41:38;;;;;;;10.80;2.90;;;;;;;;;;4772272;30;20062;-71
2022/09/13 09:44:13;;;;;;;5.43;1.95;;;;;;;;;;4782749;30;20051;-73
2022/09/13 09:46:40;;;;;;;6.10;2.38;;;;;;;;;;4768312;30;20059;-72
2022/09/13 09:52:05;;;;;;;11.15;2.83;;;;;;;;;;4770280;30;20079;-72
2022/09/13 09:54:33;;;;;;;7.10;2.38;;;;;;;;;;4760111;30;20056;-71
2022/09/13 09:57:00;;;;;;;10.82;2.58;;;;;;;;;;4767998;30;20416;-72
2022/09/13 09:59:32;;;;;;;10.38;2.50;;;;;;;;;;4770536;30;20055;-71
2022/09/13 10:02:06;;;;;;;7.90;2.88;;;;;;;;;;4770193;30;20100;-72
2022/09/13 10:04:33;;;;;;;6.03;2.00;;;;;;;;;;4768974;30;20058;-72
2022/09/13 10:07:18;;;;;;;11.02;2.45;;;;;;;;;;4770343;30;20478;-72
2022/09/13 10:10:05;;;;;;;7.70;1.98;;;;;;;;;;4770283;30;20040;-72
2022/09/13 10:12:35;;;;;;;7.57;2.13;;;;;;;;;;4768610;30;20408;-72
2022/09/13 10:15:06;;;;;;;8.50;2.20;;;;;;;;;;4770592;30;20512;-72
2022/09/13 10:17:32;;;;;;;7.55;2.35;;;;;;;;;;4771025;30;20079;-72
2022/09/13 10:20:00;;;;;;;8.27;2.10;;;;;;;;;;4770284;30;20108;-72
2022/09/13 10:22:28;;;;;;;4.55;1.92;;;;;;;;;;4770758;30;20055;-72
2022/09/13 10:24:54;;;;;;;7.63;2.03;;;;;;;;;;4769837;30;20043;-72
2022/09/13 10:27:21;;;;;;;6.72;2.28;;;;;;;;;;4770705;30;20501;-72
2022/09/13 10:29:49;;;;;;;7.63;2.85;;;;;;;;;;4770737;30;20126;-72
2022/09/13 10:32:18;;;;;;;8.63;2.00;;;;;;;;;;4770394;30;20460;-73
2022/09/13 10:34:45;;;;;;;6.78;1.98;;;;;;;;;;4770883;30;20058;-72
2022/09/13 10:37:18;;;;;;;9.32;2.10;;;;;;;;;;4770036;30;20047;-72
2022/09/13 10:39:53;;;;;;;8.95;2.13;;;;;;;;;;4770157;30;20115;-72
2022/09/13 10:42:22;;;;;;;3.28;1.92;;;;;;;;;;4774073;30;20051;-72
2022/09/13 10:44:59;;;;;;;10.90;2.88;;;;;;;;;;4773124;30;20194;-72
2022/09/13 10:47:26;;;;;;;8.30;2.13;;;;;;;;;;4773550;30;20040;-72
2022/09/13 10:49:53;;;;;;;9.45;2.40;;;;;;;;;;4772987;30;20047;-72
2022/09/13 10:52:22;;;;;;;5.68;2.28;;;;;;;;;;4773368;30;20050;-72
2022/09/13 10:54:48;;;;;;;9.05;2.45;;;;;;;;;;4773249;30;20052;-72
2022/09/13 10:57:35;;;;;;;6.55;2.65;;;;;;;;;;4773466;30;20116;-72
2022/09/13 11:00:02;;;;;;;13.60;3.10;;;;;;;;;;4773652;30;20043;-72
2022/09/13 11:02:34;;;;;;;7.88;2.70;;;;;;;;;;4773597;30;20079;-72
2022/09/13 11:05:06;;;;;;;8.50;2.92;;;;;;;;;;4772662;30;20073;-72
2022/09/13 11:07:45;;;;;;;6.72;2.40;;;;;;;;;;4773459;30;20047;-72
2022/09/13 11:10:14;;;;;;;7.25;2.42;;;;;;;;;;4772902;30;20052;-72
2022/09/13 11:12:40;;;;;;;10.27;2.28;;;;;;;;;;4772988;30;20051;-72
2022/09/13 11:15:14;;;;;;;10.32;2.45;;;;;;;;;;4773257;30;20496;-72
2022/09/13 11:17:55;;;;;;;4.93;2.13;;;;;;;;;;4773138;30;20039;-72
2022/09/13 11:20:21;;;;;;;;;;;;;;;;;;4773152;30;20118;-72
2022/09/13 11:22:47;;;;;;;8.43;2.80;;;;;;;;;;4772899;30;19920;-72
2022/09/13 11:25:17;;;;;;;6.78;2.10;;;;;;;;;;4771420;30;20389;-72
2022/09/13 11:27:43;;;;;;;11.38;2.75;;;;;;;;;;4772529;30;20039;-72
2022/09/13 11:30:12;;;;;;;5.65;2.85;;;;;;;;;;4772824;30;20051;-72
2022/09/13 11:32:56;;;;;;;6.25;2.38;;;;;;;;;;4771769;30;20039;-72
2022/09/13 11:35:41;;;;;;;4.68;2.08;;;;;;;;;;4771270;30;20063;-72
2022/09/13 11:38:26;;;;;;;8.32;2.22;;;;;;;;;;4773346;30;20044;-72
2022/09/13 11:40:55;;;;;;;7.20;2.80;;;;;;;;;;4773469;30;20134;-72
2022/09/13 11:43:24;;;;;;;10.20;2.85;;;;;;;;;;4773091;30;20059;-72
2022/09/13 11:46:09;;;;;;;6.18;2.17;;;;;;;;;;4773803;30;20506;-71
2022/09/13 11:48:44;;;;;;;7.80;2.78;;;;;;;;;;4774330;30;20051;-72
2022/09/13 11:51:29;;;;;;;9.27;2.78;;;;;;;;;;4773009;30;20051;-72
2022/09/13 11:53:55;;;;;;;8.82;2.40;;;;;;;;;;4773643;30;20117;-72
2022/09/13 11:56:24;;;;;;;8.02;2.50;;;;;;;;;;4773970;30;20492;-72
2022/09/13 11:58:52;;;;;;;8.07;2.40;;;;;;;;;;4773318;30;20096;-72
2022/09/13 12:01:28;;;;;;;8.15;2.70;;;;;;;;;;4773647;30;20048;-72
2022/09/13 12:04:06;;;;;;;8.75;2.55;;;;;;;;;;4773522;30;20048;-72
2022/09/13 12:06:53;;;;;;;8.85;2.67;;;;;;;;;;4773304;30;20059;-72
2022/09/13 12:09:30;;;;;;;6.15;2.30;;;;;;;;;;4773906;30;20052;-72
2022/09/13 12:12:07;;;;;;;12.60;2.97;;;;;;;;;;4772753;30;20081;-71
2022/09/13 12:14:49;;;;;;;9.85;2.75;;;;;;;;;;4773454;30;20088;-71
2022/09/13 12:17:25;;;;;;;5.63;2.15;;;;;;;;;;4773352;30;20047;-71
2022/09/13 12:19:53;;;;;;;8.23;2.30;;;;;;;;;;4773418;30;20048;-72
2022/09/13 12:22:21;;;;;;;9.23;2.60;;;;;;;;;;4773293;30;20043;-72
2022/09/13 12:24:50;;;;;;;11.25;2.83;;;;;;;;;;4773146;30;20048;-71
2022/09/13 12:27:36;;;;;;;12.77;2.70;;;;;;;;;;4773068;30;20126;-71
2022/09/13 12:30:29;;;;;;;6.95;2.78;;;;;;;;;;4773171;30;20048;-71
2022/09/13 12:32:55;;;;;;;8.63;2.63;;;;;;;;;;4768083;29;20185;-71
2022/09/13 12:35:26;;;;;;;10.27;2.60;;;;;;;;;;4754209;30;20059;-71
2022/09/13 12:37:52;;;;;;;8.15;2.50;;;;;;;;;;4754437;30;20055;-71
2022/09/13 12:40:33;;;;;;;6.97;2.05;;;;;;;;;;4754017;30;20524;-71
2022/09/13 12:43:18;;;;;;;7.22;2.17;;;;;;;;;;4753835;30;20164;-71
2022/09/13 12:45:44;;;;;;;8.43;2.63;;;;;;;;;;4753550;30;20056;-71
2022/09/13 12:48:20;;;;;;;8.93;2.58;;;;;;;;;;4754066;30;20497;-71
2022/09/13 12:50:55;;;;;;;10.57;2.35;;;;;;;;;;4753870;30;20073;-71
2022/09/13 12:53:45;;;;;;;6.95;2.17;;;;;;;;;;4753140;30;20511;-71
2022/09/13 12:56:30;;;;;;;7.75;2.70;;;;;;;;;;4751985;30;20055;-71
2022/09/13 12:59:10;;;;;;;10.65;2.58;;;;;;;;;;4753220;30;20096;-71
2022/09/13 13:01:36;;;;;;;10.85;3.30;;;;;;;;;;4753856;30;20106;-71
2022/09/13 13:04:29;;;;;;;9.35;2.58;;;;;;;;;;4752049;30;20078;-71
2022/09/13 13:06:55;;;;;;;8.45;2.78;;;;;;;;;;4753088;30;20059;-71
2022/09/13 13:09:35;;;;;;;12.70;2.65;;;;;;;;;;4753801;30;20509;-72
2022/09/13 13:12:03;;;;;;;7.18;2.60;;;;;;;;;;4752338;30;20052;-71
2022/09/13 13:14:41;;;;;;;7.88;2.78;;;;;;;;;;4753604;30;20508;-71
2022/09/13 13:17:26;;;;;;;4.45;2.65;;;;;;;;;;4753690;30;20048;-71
2022/09/13 13:19:52;;;;;;;12.95;3.30;;;;;;;;;;4752892;30;20079;-71
2022/09/13 13:22:36;;;;;;;12.23;3.20;;;;;;;;;;4753795;30;20055;-73
2022/09/13 13:25:21;;;;;;;12.88;2.60;;;;;;;;;;4753450;30;20048;-74
2022/09/13 13:27:50;;;;;;;8.98;3.00;;;;;;;;;;4751881;30;20040;-73
2022/09/13 13:30:35;;;;;;;8.15;3.20;;;;;;;;;;4753176;30;20455;-73
2022/09/13 13:33:05;;;;;;;10.75;3.10;;;;;;;;;;4753397;30;20044;-74
2022/09/13 13:35:31;;;;;;;9.30;2.72;;;;;;;;;;4752493;30;20207;-73
2022/09/13 13:38:13;;;;;;;9.45;2.75;;;;;;;;;;4752840;30;20056;-74
2022/09/13 13:40:40;;;;;;;7.60;2.60;;;;;;;;;;4753026;30;20044;-73
2022/09/13 13:43:36;;;;;;;7.30;2.67;;;;;;;;;;4752052;30;20119;-75
2022/09/13 13:46:11;;;;;;;8.10;2.95;;;;;;;;;;4751911;30;20150;-75
2022/09/13 13:48:41;;;;;;;10.65;2.95;;;;;;;;;;4753084;30;20036;-75
2022/09/13 13:51:16;;;;;;;7.88;2.60;;;;;;;;;;4752311;30;20048;-75
2022/09/13 13:53:44;;;;;;;10.65;3.28;;;;;;;;;;4752230;30;20121;-75
2022/09/13 13:56:23;;;;;;;10.70;2.80;;;;;;;;;;4752292;30;20047;-74
2022/09/13 13:59:10;;;;;;;11.20;3.10;;;;;;;;;;4753120;30;20106;-74
2022/09/13 14:01:38;;;;;;;10.15;3.10;;;;;;;;;;4752801;30;20109;-74
2022/09/13 14:04:11;;;;;;;11.82;3.00;;;;;;;;;;4752580;30;20532;-74
2022/09/13 14:06:52;;;;;;;6.43;2.78;;;;;;;;;;4752826;30;20708;-74
2022/09/13 14:09:22;;;;;;;11.98;3.67;;;;;;;;;;4752962;30;20052;-74
2022/09/13 14:11:54;;;;;;;9.20;2.70;;;;;;;;;;4751718;30;20052;-75
2022/09/13 14:14:39;;;;;;;9.95;3.78;;;;;;;;;;4753009;30;20138;-74
2022/09/13 14:17:23;;;;;;;17.45;3.17;;;;;;;;;;4755989;30;20048;-74
2022/09/13 14:19:53;;;;;;;6.80;2.92;;;;;;;;;;4755911;30;20044;-73
2022/09/13 14:22:23;;;;;;;8.85;3.65;;;;;;;;;;4754026;30;20048;-73
2022/09/13 14:24:56;;;;;;;9.15;3.45;;;;;;;;;;4755220;30;20048;-73
2022/09/13 14:27:25;;;;;;;9.95;3.38;;;;;;;;;;4755671;30;20535;-73
2022/09/13 14:29:53;;;;;;;8.93;3.03;;;;;;;;;;4759256;30;20051;-73
2022/09/13 14:32:23;;;;;;;8.15;2.88;;;;;;;;;;4774028;30;20051;-73
2022/09/13 14:34:57;;;;;;;7.63;3.05;;;;;;;;;;4774216;30;20500;-74
2022/09/13 14:37:31;;;;;;;11.23;3.35;;;;;;;;;;4773373;30;20508;-74
2022/09/13 14:40:21;;;;;;;7.32;3.33;;;;;;;;;;4773985;30;20083;-73
2022/09/13 14:42:48;;;;;;;12.27;3.83;;;;;;;;;;4774829;30;20054;-74
2022/09/13 14:45:15;;;;;;;9.63;3.05;;;;;;;;;;4780155;30;20141;-74
2022/09/13 14:47:54;;;;;;;17.15;3.42;;;;;;;;;;4779013;29;20531;-74
2022/09/13 14:50:24;;;;;;;8.30;3.33;;;;;;;;;;4774797;30;20062;-74
2022/09/13 14:52:53;;;;;;;6.95;3.28;;;;;;;;;;4774419;30;20116;-74
2022/09/13 14:55:21;;;;;;;6.05;2.80;;;;;;;;;;4774382;30;20051;-75
2022/09/13 14:57:49;;;;;;;12.30;3.88;;;;;;;;;;4774208;30;20466;-75
2022/09/13 15:00:16;;;;;;;8.80;3.17;;;;;;;;;;4774109;30;20127;-75
2022/09/13 15:02:46;;;;;;;15.45;3.63;;;;;;;;;;4774380;30;20114;-75